Rock Hill, South Carolina
Current Conditions -  °F | °C
As of 7:07 AM on Saturday 25 Oct 2014 (Local Time) from KUZA Reporting Station
Haze Haze  
Wind Chill: 40°   Ceiling: Unl
Heat Index: 40°   Visibility: 4mi
Dew Point: 38°   Wind: 0mph
Humidity: 93%   Direction: NA
Pressure: 30.03"   Gusts: NA
Location:  34.92°N, 81.03°W
Report Text: KUZA 251107Z AUTO 00000KT 4SM BR CLR 04/03 A3003 RMK AO2 T00440033
Loading
Personal Weather Stations






























Interactive Weather Map
Tropical Storm Tracking
New forecast layout! Learn more

10-Day Weather Forecast

Advertisements
Track Severe Weather on mobile